sensor_id;sensor_type;location;lat;lon;timestamp;pressure;altitude;pressure_sealevel;temperature;humidity
69405;BME280;57084;52.046;5.632;2022-12-07T00:00:00;101720;;;6.5;73.5
69405;BME280;57084;52.046;5.632;2022-12-07T00:01:04;101720;;;6.4;73.5
69405;BME280;57084;52.046;5.632;2022-12-07T00:02:00;101720;;;6.4;73.5
69405;BME280;57084;52.046;5.632;2022-12-07T00:03:00;101730;;;6.4;73.5
69405;BME280;57084;52.046;5.632;2022-12-07T00:04:01;101730;;;6.4;73.5
69405;BME280;57084;52.046;5.632;2022-12-07T00:05:00;101730;;;6.4;73.4
69405;BME280;57084;52.046;5.632;2022-12-07T00:06:00;101730;;;6.4;73.4
69405;BME280;57084;52.046;5.632;2022-12-07T00:07:00;101730;;;6.4;73.5
69405;BME280;57084;52.046;5.632;2022-12-07T00:08:00;101730;;;6.4;73.5
69405;BME280;57084;52.046;5.632;2022-12-07T00:09:00;101730;;;6.3;73.4
69405;BME280;57084;52.046;5.632;2022-12-07T00:10:00;101730;;;6.3;73.4
69405;BME280;57084;52.046;5.632;2022-12-07T00:11:00;101720;;;6.3;73.4
69405;BME280;57084;52.046;5.632;2022-12-07T00:12:00;101720;;;6.3;73.4
69405;BME280;57084;52.046;5.632;2022-12-07T00:13:00;101720;;;6.3;73.4
69405;BME280;57084;52.046;5.632;2022-12-07T00:14:01;101720;;;6.3;73.4
69405;BME280;57084;52.046;5.632;2022-12-07T00:15:00;101720;;;6.3;73.4
69405;BME280;57084;52.046;5.632;2022-12-07T00:16:00;101720;;;6.3;73.4
69405;BME280;57084;52.046;5.632;2022-12-07T00:17:00;101720;;;6.3;73.4
69405;BME280;57084;52.046;5.632;2022-12-07T00:18:00;101720;;;6.3;73.4
69405;BME280;57084;52.046;5.632;2022-12-07T00:19:00;101710;;;6.3;73.4
69405;BME280;57084;52.046;5.632;2022-12-07T00:20:00;101710;;;6.3;73.4
69405;BME280;57084;52.046;5.632;2022-12-07T00:21:00;101710;;;6.2;73.3
69405;BME280;57084;52.046;5.632;2022-12-07T00:22:00;101710;;;6.2;73.3
69405;BME280;57084;52.046;5.632;2022-12-07T00:23:00;101710;;;6.2;73.3
69405;BME280;57084;52.046;5.632;2022-12-07T00:24:00;101710;;;6.2;73.3
69405;BME280;57084;52.046;5.632;2022-12-07T00:25:00;101710;;;6.2;73.3
69405;BME280;57084;52.046;5.632;2022-12-07T00:26:04;101710;;;6.2;73.3
69405;BME280;57084;52.046;5.632;2022-12-07T00:27:00;101720;;;6.2;73.3
69405;BME280;57084;52.046;5.632;2022-12-07T00:28:00;101720;;;6.2;73.3
69405;BME280;57084;52.046;5.632;2022-12-07T00:29:01;101720;;;6.2;73.3
69405;BME280;57084;52.046;5.632;2022-12-07T00:30:00;101720;;;6.2;73.3
69405;BME280;57084;52.046;5.632;2022-12-07T00:31:01;101710;;;6.2;73.3
69405;BME280;57084;52.046;5.632;2022-12-07T00:32:00;101710;;;6.2;73.3
69405;BME280;57084;52.046;5.632;2022-12-07T00:33:00;101710;;;6.2;73.3
69405;BME280;57084;52.046;5.632;2022-12-07T00:34:00;101710;;;6.2;73.3
69405;BME280;57084;52.046;5.632;2022-12-07T00:35:00;101700;;;6.1;73.2
69405;BME280;57084;52.046;5.632;2022-12-07T00:36:00;101700;;;6.1;73.2
69405;BME280;57084;52.046;5.632;2022-12-07T00:37:00;101700;;;6.1;73.3
69405;BME280;57084;52.046;5.632;2022-12-07T00:38:00;101700;;;6.1;73.3
69405;BME280;57084;52.046;5.632;2022-12-07T00:39:00;101700;;;6.1;73.2
69405;BME280;57084;52.046;5.632;2022-12-07T00:40:00;101700;;;6.1;73.2
69405;BME280;57084;52.046;5.632;2022-12-07T00:41:01;101700;;;6.1;73.2
69405;BME280;57084;52.046;5.632;2022-12-07T00:42:00;101700;;;6.1;73.2
69405;BME280;57084;52.046;5.632;2022-12-07T00:43:00;101700;;;6.1;73.2
69405;BME280;57084;52.046;5.632;2022-12-07T00:44:00;101700;;;6.1;73.2
69405;BME280;57084;52.046;5.632;2022-12-07T00:45:00;101700;;;6.1;73.1
69405;BME280;57084;52.046;5.632;2022-12-07T00:46:00;101700;;;6.1;73.1
69405;BME280;57084;52.046;5.632;2022-12-07T00:47:00;101700;;;6.1;73.2
69405;BME280;57084;52.046;5.632;2022-12-07T00:48:00;101700;;;6.1;73.2
69405;BME280;57084;52.046;5.632;2022-12-07T00:49:00;101700;;;6.1;73.2
69405;BME280;57084;52.046;5.632;2022-12-07T00:50:00;101700;;;6.1;73.2
69405;BME280;57084;52.046;5.632;2022-12-07T00:51:00;101690;;;6.1;73.1
69405;BME280;57084;52.046;5.632;2022-12-07T00:52:00;101690;;;6.1;73.1
69405;BME280;57084;52.046;5.632;2022-12-07T00:53:00;101690;;;6.1;73.2
69405;BME280;57084;52.046;5.632;2022-12-07T00:54:00;101690;;;6.1;73.2
69405;BME280;57084;52.046;5.632;2022-12-07T00:55:00;101690;;;6.1;73.1
69405;BME280;57084;52.046;5.632;2022-12-07T00:56:04;101690;;;6.1;73.1
69405;BME280;57084;52.046;5.632;2022-12-07T00:57:00;101690;;;6.1;73.1
69405;BME280;57084;52.046;5.632;2022-12-07T00:58:00;101690;;;6.1;73.1
69405;BME280;57084;52.046;5.632;2022-12-07T00:59:01;101690;;;6.0;73.1
69405;BME280;57084;52.046;5.632;2022-12-07T01:00:00;101690;;;6.0;73.1
69405;BME280;57084;52.046;5.632;2022-12-07T01:01:01;101680;;;6.0;73.1
69405;BME280;57084;52.046;5.632;2022-12-07T01:02:00;101680;;;6.0;73.1
69405;BME280;57084;52.046;5.632;2022-12-07T01:03:00;101690;;;6.0;73.1
69405;BME280;57084;52.046;5.632;2022-12-07T01:04:00;101690;;;6.0;73.1
69405;BME280;57084;52.046;5.632;2022-12-07T01:05:00;101680;;;6.0;73.1
69405;BME280;57084;52.046;5.632;2022-12-07T01:06:00;101680;;;6.0;73.1
69405;BME280;57084;52.046;5.632;2022-12-07T01:07:00;101690;;;6.0;73.1
69405;BME280;57084;52.046;5.632;2022-12-07T01:08:00;101690;;;6.0;73.1
69405;BME280;57084;52.046;5.632;2022-12-07T01:09:00;101690;;;6.0;73.1
69405;BME280;57084;52.046;5.632;2022-12-07T01:10:00;101690;;;6.0;73.1
69405;BME280;57084;52.046;5.632;2022-12-07T01:11:01;101690;;;6.0;73.1
69405;BME280;57084;52.046;5.632;2022-12-07T01:12:00;101690;;;6.0;73.1
69405;BME280;57084;52.046;5.632;2022-12-07T01:13:00;101680;;;6.0;73.1
69405;BME280;57084;52.046;5.632;2022-12-07T01:14:00;101680;;;6.0;73.1
69405;BME280;57084;52.046;5.632;2022-12-07T01:15:00;101690;;;6.0;73.0
69405;BME280;57084;52.046;5.632;2022-12-07T01:16:01;101690;;;6.0;73.0
69405;BME280;57084;52.046;5.632;2022-12-07T01:17:00;101690;;;6.0;73.0
69405;BME280;57084;52.046;5.632;2022-12-07T01:18:00;101690;;;6.0;73.0
69405;BME280;57084;52.046;5.632;2022-12-07T01:19:00;101690;;;6.0;73.0
69405;BME280;57084;52.046;5.632;2022-12-07T01:20:00;101690;;;6.0;73.0
69405;BME280;57084;52.046;5.632;2022-12-07T01:21:00;101690;;;5.9;73.0
69405;BME280;57084;52.046;5.632;2022-12-07T01:22:00;101690;;;5.9;73.0
69405;BME280;57084;52.046;5.632;2022-12-07T01:23:00;101700;;;5.9;73.0
69405;BME280;57084;52.046;5.632;2022-12-07T01:24:00;101700;;;5.9;73.0
69405;BME280;57084;52.046;5.632;2022-12-07T01:25:00;101700;;;5.9;72.9
69405;BME280;57084;52.046;5.632;2022-12-07T01:26:01;101700;;;5.9;72.9
69405;BME280;57084;52.046;5.632;2022-12-07T01:27:00;101700;;;5.9;73.0
69405;BME280;57084;52.046;5.632;2022-12-07T01:28:00;101700;;;5.9;73.0
69405;BME280;57084;52.046;5.632;2022-12-07T01:29:00;101700;;;5.9;73.0
69405;BME280;57084;52.046;5.632;2022-12-07T01:30:00;101700;;;5.9;73.0
69405;BME280;57084;52.046;5.632;2022-12-07T01:31:01;101700;;;5.9;72.9
69405;BME280;57084;52.046;5.632;2022-12-07T01:32:00;101700;;;5.9;72.9
69405;BME280;57084;52.046;5.632;2022-12-07T01:33:00;101690;;;5.9;73.0
69405;BME280;57084;52.046;5.632;2022-12-07T01:34:00;101690;;;5.9;73.0
69405;BME280;57084;52.046;5.632;2022-12-07T01:35:00;101690;;;5.9;72.9
69405;BME280;57084;52.046;5.632;2022-12-07T01:36:00;101690;;;5.9;72.9
69405;BME280;57084;52.046;5.632;2022-12-07T01:37:00;101690;;;5.8;72.9
69405;BME280;57084;52.046;5.632;2022-12-07T01:38:00;101690;;;5.8;72.9
69405;BME280;57084;52.046;5.632;2022-12-07T01:39:02;101690;;;5.8;72.9
69405;BME280;57084;52.046;5.632;2022-12-07T01:40:00;101690;;;5.8;72.9
69405;BME280;57084;52.046;5.632;2022-12-07T01:41:00;101690;;;5.8;72.9
69405;BME280;57084;52.046;5.632;2022-12-07T01:42:00;101690;;;5.8;72.9
69405;BME280;57084;52.046;5.632;2022-12-07T01:43:00;101690;;;5.8;72.9
69405;BME280;57084;52.046;5.632;2022-12-07T01:44:09;101690;;;5.8;72.9
69405;BME280;57084;52.046;5.632;2022-12-07T01:46:00;101700;;;5.8;72.8
69405;BME280;57084;52.046;5.632;2022-12-07T01:47:00;101700;;;5.8;72.9
69405;BME280;57084;52.046;5.632;2022-12-07T01:48:00;101700;;;5.8;72.9
69405;BME280;57084;52.046;5.632;2022-12-07T01:49:00;101700;;;5.8;72.9
69405;BME280;57084;52.046;5.632;2022-12-07T01:50:00;101700;;;5.8;72.9
69405;BME280;57084;52.046;5.632;2022-12-07T01:51:00;101690;;;5.8;72.9
69405;BME280;57084;52.046;5.632;2022-12-07T01:52:03;101690;;;5.8;72.9
69405;BME280;57084;52.046;5.632;2022-12-07T01:53:01;101700;;;5.8;72.9
69405;BME280;57084;52.046;5.632;2022-12-07T01:54:00;101700;;;5.8;72.9
69405;BME280;57084;52.046;5.632;2022-12-07T01:55:01;101700;;;5.7;72.8
69405;BME280;57084;52.046;5.632;2022-12-07T01:56:00;101700;;;5.7;72.8
69405;BME280;57084;52.046;5.632;2022-12-07T01:57:00;101700;;;5.7;72.8
69405;BME280;57084;52.046;5.632;2022-12-07T01:58:00;101700;;;5.7;72.8
69405;BME280;57084;52.046;5.632;2022-12-07T01:59:00;101690;;;5.7;72.8
69405;BME280;57084;52.046;5.632;2022-12-07T02:00:00;101690;;;5.7;72.8
69405;BME280;57084;52.046;5.632;2022-12-07T02:01:00;101690;;;5.7;72.8
69405;BME280;57084;52.046;5.632;2022-12-07T02:02:00;101690;;;5.7;72.8
69405;BME280;57084;52.046;5.632;2022-12-07T02:03:02;101690;;;5.7;72.8
69405;BME280;57084;52.046;5.632;2022-12-07T02:04:00;101690;;;5.7;72.8
69405;BME280;57084;52.046;5.632;2022-12-07T02:05:01;101700;;;5.7;72.8
69405;BME280;57084;52.046;5.632;2022-12-07T02:06:00;101700;;;5.7;72.8
69405;BME280;57084;52.046;5.632;2022-12-07T02:07:00;101690;;;5.7;72.8
69405;BME280;57084;52.046;5.632;2022-12-07T02:08:00;101690;;;5.7;72.8
69405;BME280;57084;52.046;5.632;2022-12-07T02:09:00;101690;;;5.7;72.8
69405;BME280;57084;52.046;5.632;2022-12-07T02:10:11;101690;;;5.7;72.8
69405;BME280;57084;52.046;5.632;2022-12-07T02:11:00;101690;;;5.7;72.8
69405;BME280;57084;52.046;5.632;2022-12-07T02:12:00;101690;;;5.7;72.8
69405;BME280;57084;52.046;5.632;2022-12-07T02:13:01;101680;;;5.6;72.8
69405;BME280;57084;52.046;5.632;2022-12-07T02:14:00;101680;;;5.6;72.8
69405;BME280;57084;52.046;5.632;2022-12-07T02:15:00;101690;;;5.7;72.8
69405;BME280;57084;52.046;5.632;2022-12-07T02:16:04;101690;;;5.7;72.8
69405;BME280;57084;52.046;5.632;2022-12-07T02:17:03;101690;;;5.6;72.7
69405;BME280;57084;52.046;5.632;2022-12-07T02:18:01;101690;;;5.6;72.7
69405;BME280;57084;52.046;5.632;2022-12-07T02:19:04;101690;;;5.6;72.8
69405;BME280;57084;52.046;5.632;2022-12-07T02:20:04;101690;;;5.6;72.8
69405;BME280;57084;52.046;5.632;2022-12-07T02:21:01;101690;;;5.6;72.7
69405;BME280;57084;52.046;5.632;2022-12-07T02:22:01;101690;;;5.6;72.7
69405;BME280;57084;52.046;5.632;2022-12-07T02:23:05;101700;;;5.6;72.8
69405;BME280;57084;52.046;5.632;2022-12-07T02:24:05;101700;;;5.6;72.8
69405;BME280;57084;52.046;5.632;2022-12-07T02:25:03;101690;;;5.6;72.7
69405;BME280;57084;52.046;5.632;2022-12-07T02:26:10;101690;;;5.6;72.7
69405;BME280;57084;52.046;5.632;2022-12-07T02:27:06;101690;;;5.6;72.7
69405;BME280;57084;52.046;5.632;2022-12-07T02:28:01;101690;;;5.6;72.7
69405;BME280;57084;52.046;5.632;2022-12-07T02:29:06;101690;;;5.6;72.7
69405;BME280;57084;52.046;5.632;2022-12-07T02:30:00;101690;;;5.6;72.7
69405;BME280;57084;52.046;5.632;2022-12-07T02:31:01;101690;;;5.5;72.7
69405;BME280;57084;52.046;5.632;2022-12-07T02:32:02;101690;;;5.5;72.7
69405;BME280;57084;52.046;5.632;2022-12-07T02:33:01;101690;;;5.5;72.8
69405;BME280;57084;52.046;5.632;2022-12-07T02:34:02;101690;;;5.5;72.8
69405;BME280;57084;52.046;5.632;2022-12-07T02:35:02;101690;;;5.5;72.8
69405;BME280;57084;52.046;5.632;2022-12-07T02:36:01;101690;;;5.5;72.8
69405;BME280;57084;52.046;5.632;2022-12-07T02:37:01;101690;;;5.5;72.8
69405;BME280;57084;52.046;5.632;2022-12-07T02:38:02;101690;;;5.5;72.8
69405;BME280;57084;52.046;5.632;2022-12-07T02:39:01;101690;;;5.5;72.8
69405;BME280;57084;52.046;5.632;2022-12-07T02:40:01;101690;;;5.5;72.8
69405;BME280;57084;52.046;5.632;2022-12-07T02:41:02;101690;;;5.5;72.7
69405;BME280;57084;52.046;5.632;2022-12-07T02:42:02;101690;;;5.5;72.7
69405;BME280;57084;52.046;5.632;2022-12-07T02:43:02;101690;;;5.5;72.7
69405;BME280;57084;52.046;5.632;2022-12-07T02:44:01;101690;;;5.5;72.7
69405;BME280;57084;52.046;5.632;2022-12-07T02:45:01;101690;;;5.5;72.7
69405;BME280;57084;52.046;5.632;2022-12-07T02:46:01;101690;;;5.5;72.7
69405;BME280;57084;52.046;5.632;2022-12-07T02:47:01;101690;;;5.5;72.7
69405;BME280;57084;52.046;5.632;2022-12-07T02:48:00;101690;;;5.5;72.7
69405;BME280;57084;52.046;5.632;2022-12-07T02:50:02;101690;;;5.4;72.7
69405;BME280;57084;52.046;5.632;2022-12-07T02:51:00;101690;;;5.4;72.7
69405;BME280;57084;52.046;5.632;2022-12-07T02:52:00;101690;;;5.4;72.7
69405;BME280;57084;52.046;5.632;2022-12-07T02:53:00;101690;;;5.4;72.7
69405;BME280;57084;52.046;5.632;2022-12-07T02:54:01;101690;;;5.4;72.7
69405;BME280;57084;52.046;5.632;2022-12-07T02:55:00;101690;;;5.4;72.7
69405;BME280;57084;52.046;5.632;2022-12-07T02:56:01;101690;;;5.4;72.7
69405;BME280;57084;52.046;5.632;2022-12-07T02:57:02;101690;;;5.4;72.7
69405;BME280;57084;52.046;5.632;2022-12-07T02:58:05;101690;;;5.4;72.7
69405;BME280;57084;52.046;5.632;2022-12-07T02:59:02;101690;;;5.4;72.7
69405;BME280;57084;52.046;5.632;2022-12-07T03:00:01;101690;;;5.4;72.7
69405;BME280;57084;52.046;5.632;2022-12-07T03:01:04;101690;;;5.4;72.7
69405;BME280;57084;52.046;5.632;2022-12-07T03:02:03;101690;;;5.4;72.7
69405;BME280;57084;52.046;5.632;2022-12-07T03:03:00;101680;;;5.4;72.7
69405;BME280;57084;52.046;5.632;2022-12-07T03:04:02;101680;;;5.4;72.7
69405;BME280;57084;52.046;5.632;2022-12-07T03:05:02;101680;;;5.4;72.7
69405;BME280;57084;52.046;5.632;2022-12-07T03:06:04;101680;;;5.4;72.7
69405;BME280;57084;52.046;5.632;2022-12-07T03:07:01;101680;;;5.4;72.7
69405;BME280;57084;52.046;5.632;2022-12-07T03:08:02;101680;;;5.4;72.7
69405;BME280;57084;52.046;5.632;2022-12-07T03:09:01;101680;;;5.4;72.7
69405;BME280;57084;52.046;5.632;2022-12-07T03:10:01;101680;;;5.4;72.7
69405;BME280;57084;52.046;5.632;2022-12-07T03:11:01;101680;;;5.4;72.7
69405;BME280;57084;52.046;5.632;2022-12-07T03:12:01;101680;;;5.4;72.7
69405;BME280;57084;52.046;5.632;2022-12-07T03:13:02;101680;;;5.4;72.7
69405;BME280;57084;52.046;5.632;2022-12-07T03:14:01;101680;;;5.4;72.7
69405;BME280;57084;52.046;5.632;2022-12-07T03:15:01;101680;;;5.4;72.7
69405;BME280;57084;52.046;5.632;2022-12-07T03:16:02;101680;;;5.4;72.7
69405;BME280;57084;52.046;5.632;2022-12-07T03:17:01;101680;;;5.4;72.7
69405;BME280;57084;52.046;5.632;2022-12-07T03:18:00;101680;;;5.4;72.7
69405;BME280;57084;52.046;5.632;2022-12-07T03:19:01;101680;;;5.4;72.7
69405;BME280;57084;52.046;5.632;2022-12-07T03:20:03;101680;;;5.4;72.7
69405;BME280;57084;52.046;5.632;2022-12-07T03:21:02;101690;;;5.4;72.6
69405;BME280;57084;52.046;5.632;2022-12-07T03:22:01;101690;;;5.4;72.6
69405;BME280;57084;52.046;5.632;2022-12-07T03:23:00;101680;;;5.4;72.7
69405;BME280;57084;52.046;5.632;2022-12-07T03:24:02;101680;;;5.4;72.7
69405;BME280;57084;52.046;5.632;2022-12-07T03:25:01;101680;;;5.4;72.7
69405;BME280;57084;52.046;5.632;2022-12-07T03:26:00;101680;;;5.4;72.7
69405;BME280;57084;52.046;5.632;2022-12-07T03:27:01;101680;;;5.4;72.7
69405;BME280;57084;52.046;5.632;2022-12-07T03:28:01;101680;;;5.4;72.7
69405;BME280;57084;52.046;5.632;2022-12-07T03:29:01;101670;;;5.4;72.7
69405;BME280;57084;52.046;5.632;2022-12-07T03:30:03;101670;;;5.4;72.7
69405;BME280;57084;52.046;5.632;2022-12-07T03:31:01;101680;;;5.4;72.7
69405;BME280;57084;52.046;5.632;2022-12-07T03:32:01;101680;;;5.4;72.7
69405;BME280;57084;52.046;5.632;2022-12-07T03:33:01;101680;;;5.4;72.7
69405;BME280;57084;52.046;5.632;2022-12-07T03:34:01;101680;;;5.4;72.7
69405;BME280;57084;52.046;5.632;2022-12-07T03:35:01;101680;;;5.4;72.7
69405;BME280;57084;52.046;5.632;2022-12-07T03:36:01;101680;;;5.4;72.7
69405;BME280;57084;52.046;5.632;2022-12-07T03:37:00;101670;;;5.4;72.7
69405;BME280;57084;52.046;5.632;2022-12-07T03:38:02;101670;;;5.4;72.7
69405;BME280;57084;52.046;5.632;2022-12-07T03:39:02;101670;;;5.4;72.8
69405;BME280;57084;52.046;5.632;2022-12-07T03:40:02;101670;;;5.4;72.8
69405;BME280;57084;52.046;5.632;2022-12-07T03:41:01;101670;;;5.5;72.7
69405;BME280;57084;52.046;5.632;2022-12-07T03:42:00;101670;;;5.5;72.7
69405;BME280;57084;52.046;5.632;2022-12-07T03:43:00;101680;;;5.5;72.8
69405;BME280;57084;52.046;5.632;2022-12-07T03:44:00;101680;;;5.5;72.8
69405;BME280;57084;52.046;5.632;2022-12-07T03:45:00;101670;;;5.5;72.7
69405;BME280;57084;52.046;5.632;2022-12-07T03:46:01;101670;;;5.5;72.7
69405;BME280;57084;52.046;5.632;2022-12-07T03:47:01;101660;;;5.5;72.7
69405;BME280;57084;52.046;5.632;2022-12-07T03:48:02;101660;;;5.5;72.7
69405;BME280;57084;52.046;5.632;2022-12-07T03:49:02;101660;;;5.5;72.8
69405;BME280;57084;52.046;5.632;2022-12-07T03:50:01;101660;;;5.5;72.8
69405;BME280;57084;52.046;5.632;2022-12-07T03:51:01;101660;;;5.5;72.7
69405;BME280;57084;52.046;5.632;2022-12-07T03:52:01;101660;;;5.5;72.7
69405;BME280;57084;52.046;5.632;2022-12-07T03:53:02;101670;;;5.5;72.8
69405;BME280;57084;52.046;5.632;2022-12-07T03:54:02;101670;;;5.5;72.8
69405;BME280;57084;52.046;5.632;2022-12-07T03:55:02;101660;;;5.5;72.8
69405;BME280;57084;52.046;5.632;2022-12-07T03:56:00;101660;;;5.5;72.8
69405;BME280;57084;52.046;5.632;2022-12-07T03:57:00;101660;;;5.5;72.8
69405;BME280;57084;52.046;5.632;2022-12-07T03:58:01;101660;;;5.5;72.8
69405;BME280;57084;52.046;5.632;2022-12-07T03:59:00;101670;;;5.5;72.8
69405;BME280;57084;52.046;5.632;2022-12-07T04:00:00;101670;;;5.5;72.8
69405;BME280;57084;52.046;5.632;2022-12-07T04:01:00;101670;;;5.5;72.8
69405;BME280;57084;52.046;5.632;2022-12-07T04:02:01;101670;;;5.5;72.8
69405;BME280;57084;52.046;5.632;2022-12-07T04:03:00;101660;;;5.5;72.8
69405;BME280;57084;52.046;5.632;2022-12-07T04:04:00;101660;;;5.5;72.8
69405;BME280;57084;52.046;5.632;2022-12-07T04:05:01;101660;;;5.5;72.8
69405;BME280;57084;52.046;5.632;2022-12-07T04:06:00;101660;;;5.5;72.8
69405;BME280;57084;52.046;5.632;2022-12-07T04:07:00;101660;;;5.5;72.8
69405;BME280;57084;52.046;5.632;2022-12-07T04:08:00;101660;;;5.5;72.8
69405;BME280;57084;52.046;5.632;2022-12-07T04:09:00;101660;;;5.5;72.8
69405;BME280;57084;52.046;5.632;2022-12-07T04:10:00;101660;;;5.5;72.8
69405;BME280;57084;52.046;5.632;2022-12-07T04:11:00;101650;;;5.5;72.8
69405;BME280;57084;52.046;5.632;2022-12-07T04:12:00;101650;;;5.5;72.8
69405;BME280;57084;52.046;5.632;2022-12-07T04:13:00;101650;;;5.5;72.8
69405;BME280;57084;52.046;5.632;2022-12-07T04:14:00;101650;;;5.5;72.8
69405;BME280;57084;52.046;5.632;2022-12-07T04:15:00;101650;;;5.5;72.8
69405;BME280;57084;52.046;5.632;2022-12-07T04:16:00;101650;;;5.5;72.8
69405;BME280;57084;52.046;5.632;2022-12-07T04:17:00;101650;;;5.5;72.8
69405;BME280;57084;52.046;5.632;2022-12-07T04:18:00;101650;;;5.5;72.8
69405;BME280;57084;52.046;5.632;2022-12-07T04:19:00;101650;;;5.4;72.8
69405;BME280;57084;52.046;5.632;2022-12-07T04:20:00;101650;;;5.4;72.8
69405;BME280;57084;52.046;5.632;2022-12-07T04:21:00;101670;;;5.4;72.8
69405;BME280;57084;52.046;5.632;2022-12-07T04:22:01;101670;;;5.4;72.8
69405;BME280;57084;52.046;5.632;2022-12-07T04:23:00;101670;;;5.4;72.8
69405;BME280;57084;52.046;5.632;2022-12-07T04:24:00;101670;;;5.4;72.8
69405;BME280;57084;52.046;5.632;2022-12-07T04:25:00;101670;;;5.4;72.8
69405;BME280;57084;52.046;5.632;2022-12-07T04:26:00;101670;;;5.4;72.8
69405;BME280;57084;52.046;5.632;2022-12-07T04:27:00;101670;;;5.4;72.9
69405;BME280;57084;52.046;5.632;2022-12-07T04:28:00;101670;;;5.4;72.9
69405;BME280;57084;52.046;5.632;2022-12-07T04:29:00;101670;;;5.4;72.9
69405;BME280;57084;52.046;5.632;2022-12-07T04:30:00;101670;;;5.4;72.9
69405;BME280;57084;52.046;5.632;2022-12-07T04:31:00;101670;;;5.4;72.9
69405;BME280;57084;52.046;5.632;2022-12-07T04:32:00;101670;;;5.4;72.9
69405;BME280;57084;52.046;5.632;2022-12-07T04:33:00;101660;;;5.4;72.9
69405;BME280;57084;52.046;5.632;2022-12-07T04:34:00;101660;;;5.4;72.9
69405;BME280;57084;52.046;5.632;2022-12-07T04:35:00;101660;;;5.4;72.9
69405;BME280;57084;52.046;5.632;2022-12-07T04:36:00;101660;;;5.4;72.9
69405;BME280;57084;52.046;5.632;2022-12-07T04:37:00;101660;;;5.4;72.9
69405;BME280;57084;52.046;5.632;2022-12-07T04:38:00;101660;;;5.4;72.9
69405;BME280;57084;52.046;5.632;2022-12-07T04:39:00;101660;;;5.4;72.9
69405;BME280;57084;52.046;5.632;2022-12-07T04:40:00;101660;;;5.4;72.9
69405;BME280;57084;52.046;5.632;2022-12-07T04:41:03;101650;;;5.4;72.9
69405;BME280;57084;52.046;5.632;2022-12-07T04:42:00;101650;;;5.4;72.9
69405;BME280;57084;52.046;5.632;2022-12-07T04:43:00;101650;;;5.4;72.9
69405;BME280;57084;52.046;5.632;2022-12-07T04:44:01;101650;;;5.4;72.9
69405;BME280;57084;52.046;5.632;2022-12-07T04:45:00;101640;;;5.4;72.9
69405;BME280;57084;52.046;5.632;2022-12-07T04:46:00;101640;;;5.4;72.9
69405;BME280;57084;52.046;5.632;2022-12-07T04:47:00;101650;;;5.4;72.9
69405;BME280;57084;52.046;5.632;2022-12-07T04:48:00;101650;;;5.4;72.9
69405;BME280;57084;52.046;5.632;2022-12-07T04:49:00;101650;;;5.4;73.0
69405;BME280;57084;52.046;5.632;2022-12-07T04:50:00;101650;;;5.4;73.0
69405;BME280;57084;52.046;5.632;2022-12-07T04:51:01;101650;;;5.4;72.9
69405;BME280;57084;52.046;5.632;2022-12-07T04:52:00;101650;;;5.4;72.9
69405;BME280;57084;52.046;5.632;2022-12-07T04:53:00;101650;;;5.4;72.9
69405;BME280;57084;52.046;5.632;2022-12-07T04:54:00;101650;;;5.4;72.9
69405;BME280;57084;52.046;5.632;2022-12-07T04:55:00;101650;;;5.4;72.9
69405;BME280;57084;52.046;5.632;2022-12-07T04:56:00;101650;;;5.4;72.9
69405;BME280;57084;52.046;5.632;2022-12-07T04:57:00;101650;;;5.4;72.9
69405;BME280;57084;52.046;5.632;2022-12-07T04:58:00;101650;;;5.4;72.9
69405;BME280;57084;52.046;5.632;2022-12-07T04:59:00;101650;;;5.4;72.9
69405;BME280;57084;52.046;5.632;2022-12-07T05:00:00;101650;;;5.4;72.9
69405;BME280;57084;52.046;5.632;2022-12-07T05:01:00;101650;;;5.4;72.9
69405;BME280;57084;52.046;5.632;2022-12-07T05:02:00;101650;;;5.4;72.9
69405;BME280;57084;52.046;5.632;2022-12-07T05:03:00;101650;;;5.4;72.9
69405;BME280;57084;52.046;5.632;2022-12-07T05:04:00;101650;;;5.4;72.9
69405;BME280;57084;52.046;5.632;2022-12-07T05:05:00;101640;;;5.4;72.9
69405;BME280;57084;52.046;5.632;2022-12-07T05:06:00;101640;;;5.4;72.9
69405;BME280;57084;52.046;5.632;2022-12-07T05:07:00;101640;;;5.4;72.9
69405;BME280;57084;52.046;5.632;2022-12-07T05:08:00;101640;;;5.4;72.9
69405;BME280;57084;52.046;5.632;2022-12-07T05:09:00;101640;;;5.4;73.0
69405;BME280;57084;52.046;5.632;2022-12-07T05:10:00;101640;;;5.4;73.0
69405;BME280;57084;52.046;5.632;2022-12-07T05:11:00;101650;;;5.4;73.0
69405;BME280;57084;52.046;5.632;2022-12-07T05:12:00;101650;;;5.4;73.0
69405;BME280;57084;52.046;5.632;2022-12-07T05:13:00;101650;;;5.4;73.0
69405;BME280;57084;52.046;5.632;2022-12-07T05:14:00;101650;;;5.4;73.0
69405;BME280;57084;52.046;5.632;2022-12-07T05:15:00;101650;;;5.4;73.0
69405;BME280;57084;52.046;5.632;2022-12-07T05:16:00;101650;;;5.4;73.0
69405;BME280;57084;52.046;5.632;2022-12-07T05:17:00;101640;;;5.4;73.0
69405;BME280;57084;52.046;5.632;2022-12-07T05:18:00;101640;;;5.4;73.0
69405;BME280;57084;52.046;5.632;2022-12-07T05:19:00;101650;;;5.4;73.0
69405;BME280;57084;52.046;5.632;2022-12-07T05:20:00;101650;;;5.4;73.0
69405;BME280;57084;52.046;5.632;2022-12-07T05:21:00;101640;;;5.4;73.0
69405;BME280;57084;52.046;5.632;2022-12-07T05:22:00;101640;;;5.4;73.0
69405;BME280;57084;52.046;5.632;2022-12-07T05:23:00;101640;;;5.4;73.1
69405;BME280;57084;52.046;5.632;2022-12-07T05:24:00;101640;;;5.4;73.1
69405;BME280;57084;52.046;5.632;2022-12-07T05:25:00;101640;;;5.4;73.0
69405;BME280;57084;52.046;5.632;2022-12-07T05:26:00;101640;;;5.4;73.0
69405;BME280;57084;52.046;5.632;2022-12-07T05:27:00;101640;;;5.4;73.0
69405;BME280;57084;52.046;5.632;2022-12-07T05:28:00;101640;;;5.4;73.0
69405;BME280;57084;52.046;5.632;2022-12-07T05:29:00;101640;;;5.4;73.1
69405;BME280;57084;52.046;5.632;2022-12-07T05:30:00;101640;;;5.4;73.1
69405;BME280;57084;52.046;5.632;2022-12-07T05:31:00;101640;;;5.4;73.1
69405;BME280;57084;52.046;5.632;2022-12-07T05:32:00;101640;;;5.4;73.1
69405;BME280;57084;52.046;5.632;2022-12-07T05:33:00;101640;;;5.4;73.1
69405;BME280;57084;52.046;5.632;2022-12-07T05:34:00;101640;;;5.4;73.1
69405;BME280;57084;52.046;5.632;2022-12-07T05:35:00;101640;;;5.4;73.1
69405;BME280;57084;52.046;5.632;2022-12-07T05:36:00;101640;;;5.4;73.1
69405;BME280;57084;52.046;5.632;2022-12-07T05:37:00;101630;;;5.4;73.0
69405;BME280;57084;52.046;5.632;2022-12-07T05:38:00;101630;;;5.4;73.0
69405;BME280;57084;52.046;5.632;2022-12-07T05:39:00;101640;;;5.4;73.1
69405;BME280;57084;52.046;5.632;2022-12-07T05:40:00;101640;;;5.4;73.1
69405;BME280;57084;52.046;5.632;2022-12-07T05:41:00;101640;;;5.4;73.1
69405;BME280;57084;52.046;5.632;2022-12-07T05:42:00;101640;;;5.4;73.1